Cytokinetics Inc (NASDAQ:CYTK)

CAPS Rating: 3 out of 5

A biopharmaceutical company, focused on developing small molecule therapeutics for the treatment of cardiovascular diseases and cancer.

Results 1 - 99 of 191 : 1 2 Next »
Top
Pick
Member Name Member
Rating
Start
Date
Call Time
Frame
Start
Price
Stock
Gain
Index
Gain
Score Commentary
Bigskymontana05 59.21 8/5/2015 Outperform 3M $6.76 +3.55% -5.43% +8.98 1 Comment
dollarsandcents1 < 20 7/23/2015 Outperform 5Y $6.96 +0.57% -5.81% +6.38 0 Comment
superstar 99.67 7/22/2015 Outperform 5Y $6.89 +1.60% -5.70% +7.30 0 Comment
JimAnder 57.57 7/1/2015 Outperform 5Y $6.74 +3.86% -4.09% +7.94 0 Comment
portefeuille 99.70 5/1/2015 Outperform 5Y $5.97 +17.25% -4.98% +22.23 0 Comment
OttoBismarck 99.88 3/3/2015 Underperform 5Y $7.87 -11.05% -5.78% +5.27 0 Comment
icewater3 90.42 2/17/2015 Outperform 1Y $8.30 -15.66% -5.05% -10.62 0 Comment
vrpaul 66.36 1/21/2015 Outperform 5Y $7.26 -3.51% -1.59% -1.93 0 Comment
dflo 75.44 12/5/2014 Outperform 5Y $4.57 +53.17% -4.15% +57.32 0 Comment
Playa14 < 20 11/28/2014 Outperform 5Y $4.58 +52.84% -3.98% +56.81 0 Comment
cthomas1017 96.57 11/18/2014 Underperform 5Y $4.11 +70.32% -2.54% -72.86 0 Comment
flemishinvestor < 20 11/18/2014 Outperform 3Y $4.21 +66.27% -2.95% +69.22 0 Comment
MacroHedge 88.40 11/7/2014 Outperform 5Y $4.11 +70.32% -1.96% +72.28 0 Comment
hayrettin 70.10 10/13/2014 Outperform 5Y $3.37 +107.72% +4.84% +102.87 0 Comment
ptanabe 65.97 9/9/2014 Outperform 5Y $3.67 +90.61% -0.42% +91.03 1 Comment
GyroDynasty 98.33 7/21/2014 Outperform 5Y $4.25 +64.71% +1.09% +63.62 0 Comment
OKwarrior 43.18 6/6/2014 Outperform 5Y $4.88 +43.44% +2.24% +41.20 1 Comment
ArmyRob 73.27 5/7/2014 Underperform 5Y $4.14 +69.08% +6.25% -62.83 0 Comment
AsianMatter < 20 4/28/2014 Outperform 3W $4.58 +52.84% +6.52% +46.32 0 Comment
portefeuille2 99.71 4/25/2014 Outperform 5Y $4.91 +42.71% +6.78% +35.93 0 Comment
peregrine 99.01 4/25/2014 Outperform 5Y $5.07 +38.07% +7.07% +31.00 0 Comment
TerryFool 75.34 4/15/2014 Outperform 5Y $8.94 -21.70% +9.40% -31.10 1 Comment
TerryHoodSr 76.80 4/15/2014 Outperform 5Y $8.94 -21.70% +8.71% -30.41 1 Comment
IVolStrategy 21.90 3/26/2014 Outperform 1Y $9.02 -22.39% +6.53% -28.92 0 Comment
Dmaral < 20 2/27/2014 Outperform 5Y $10.31 -32.10% +7.54% -39.64 0 Comment
This player feels very strongly about this pick and has marked it a Top Pick. Top Picks do not affect a player’s score. s2dbaker 93.31 1/10/2014 Outperform 5Y $9.22 -24.08% +8.50% -32.58 1 Comment
flypower 99.54 1/7/2014 Outperform 5Y $7.30 -4.11% +8.82% -12.93 0 Comment
HoosierDoozer 40.37 12/23/2013 Outperform 5Y $6.60 +6.06% +9.15% -3.08 0 Comment
grahamfordummies 66.66 8/8/2013 12/4/2013 Outperform 3Y $10.21 -31.44% +17.21% -48.65 1 Comment
cavemantrader 79.35 11/7/2013 Outperform 5Y $6.33 +10.58% +13.86% -3.28 0 Comment
mandynshane < 20 10/8/2013 Outperform NS $6.69 +4.63% +19.47% -14.84 0 Comment
ImFive 34.30 10/7/2013 Outperform 5Y $7.03 -0.43% +19.01% -19.43 0 Comment
ralonsot < 20 10/2/2013 Outperform 5Y $7.38 -5.15% +18.02% -23.17 0 Comment
withoutDoubt 22.66 9/5/2013 Outperform 5Y $8.32 -15.92% +19.94% -35.85 0 Comment
fatmoneyrz 98.91 9/3/2013 Outperform 5Y $7.79 -10.14% +20.54% -30.68 0 Comment
KidJones 97.75 9/3/2013 Outperform 5Y $8.62 -18.79% +20.58% -39.38 0 Comment
Greeniesnack 43.43 8/23/2013 Outperform 5Y $11.11 -36.99% +19.63% -56.62 0 Comment
FoolPep 33.53 8/22/2013 Outperform 3M $11.60 -39.66% +20.82% -60.48 0 Comment
SCOTTRHUETTLCPA 62.97 8/19/2013 Underperform 3W $10.18 -31.24% +20.62% +51.86 0 Comment
rknapton < 20 8/7/2013 Underperform 5Y $10.55 -33.65% +17.76% +51.41 1 Comment
ababrmon 98.27 7/31/2013 Outperform 3M $12.47 -43.87% +18.12% -61.98 0 Comment
efarev 99.57 2/4/2011 7/26/2013 Outperform 5Y $11.16 -37.28% +52.25% -89.53 0 Comment
ronmcpeek < 20 7/19/2013 Outperform 5Y $13.43 -47.88% +18.23% -66.11 0 Comment
TMFEZMagic < 20 7/15/2013 Underperform 5Y $13.76 -49.13% +18.65% +67.78 0 Comment
kaletbaldrich27 < 20 7/10/2013 Outperform 1Y $13.30 -47.37% +20.89% -68.26 1 Comment
Jsams82 < 20 7/1/2013 Outperform 1Y $11.58 -39.55% +23.55% -63.10 0 Comment
OriginalBarnacle 81.31 7/1/2013 Underperform 1Y $11.58 -39.55% +23.55% +63.10 0 Comment
JJ68 < 20 6/26/2013 Outperform 5Y $12.10 -42.17% +24.84% -67.01 0 Comment
ytryan 21.33 6/19/2013 Outperform 5Y $11.28 -37.95% +20.99% -58.94 0 Comment
Scraming < 20 6/19/2013 Outperform 3M $11.58 -39.55% +20.36% -59.92 0 Comment
saab93boi 24.92 6/18/2013 Underperform 5Y $11.10 -36.94% +20.10% +57.03 0 Comment
shonny2 < 20 5/22/2013 Outperform 5Y $6.90 +1.46% +18.84% -17.38 0 Comment
ava5147 < 20 2/19/2013 Outperform 1Y $6.24 +12.18% +30.76% -18.58 0 Comment
mcdbenbe < 20 2/19/2013 Outperform 5Y $6.24 +12.18% +30.76% -18.58 0 Comment
montys3 < 20 1/22/2013 Outperform 5Y $5.99 +16.94% +33.86% -16.92 0 Comment
Spyrig < 20 12/17/2012 Outperform 5Y $4.02 +74.13% +39.85% +34.28 0 Comment
mdrnsamurai < 20 12/12/2012 Outperform 5Y $4.29 +63.17% +38.36% +24.81 0 Comment
danculbertson 74.00 10/15/2012 Outperform 3M $4.41 +58.73% +38.68% +20.05 0 Comment
millerto 67.74 8/31/2012 Outperform 1Y $4.58 +52.93% +41.37% +11.56 0 Comment
IdahoInvestor 29.15 8/8/2012 Underperform 5Y $4.00 +74.97% +41.80% -33.17 0 Comment
iadops40 58.99 7/13/2012 Outperform 1Y $4.02 +74.13% +48.84% +25.29 0 Comment
THERULERGOD < 20 7/11/2012 Outperform 5Y $4.26 +64.32% +48.45% +15.87 0 Comment
greentah < 20 7/9/2012 Outperform 5Y $4.32 +62.04% +47.17% +14.87 0 Comment
HongHue 72.17 7/6/2012 Outperform 1Y $3.90 +79.49% +47.07% +32.41 0 Comment
Harlequinvestor 45.10 6/18/2012 Outperform 1Y $5.16 +35.66% +49.15% -13.50 0 Comment
ConradMike55 < 20 5/10/2012 Outperform 3W $5.58 +25.45% +45.77% -20.32 0 Comment
Arsenal1860 < 20 5/10/2012 Outperform 5Y $5.58 +25.45% +45.77% -20.32 0 Comment
MythQuinn 76.87 5/8/2012 Outperform 3Y $5.52 +26.81% +45.94% -19.13 0 Comment
stainsolution 74.23 5/8/2012 Outperform 5Y $5.70 +22.81% +46.20% -23.39 0 Comment
foolbull12 < 20 5/8/2012 Outperform 5Y $5.52 +26.81% +46.36% -19.55 0 Comment
RBuskey106 62.81 3/15/2012 Outperform 5Y $7.14 -1.96% +41.74% -43.70 1 Comment
TechSci < 20 3/6/2012 Outperform 5Y $6.54 +7.03% +47.64% -40.61 0 Comment
mhy729 31.91 2/17/2011 2/13/2012 Outperform 1Y $9.18 -23.73% +49.02% -72.75 0 Comment
drt2202 < 20 12/29/2011 Outperform 5Y $5.94 +17.85% +59.09% -41.24 0 Comment
CaptainVegetable < 20 8/5/2011 Outperform 5Y $7.14 -1.96% +63.86% -65.82 0 Comment
pobeda79 38.72 6/20/2011 Outperform 5Y $6.90 +1.45% +57.35% -55.90 0 Comment
amsteinberg86 < 20 5/31/2011 Outperform 3Y $8.64 -18.98% +47.84% -66.82 0 Comment
codyjr002 97.40 5/27/2011 Outperform 5Y $8.64 -18.98% +49.24% -68.22 0 Comment
Thleter 55.33 5/24/2011 Outperform 1Y $8.10 -13.58% +50.97% -64.55 1 Comment
ag77840 24.20 5/18/2011 Outperform 5Y $8.61 -18.70% +48.49% -67.19 0 Comment
Doggity 68.01 5/17/2011 Outperform 5Y $8.64 -18.98% +50.15% -69.14 0 Comment
Euro247 38.34 5/13/2011 Outperform 5Y $8.79 -20.36% +48.83% -69.20 0 Comment
inouye 54.57 5/3/2011 Outperform 1Y $8.52 -17.84% +46.98% -64.82 0 Comment
NVTreasureHunter 29.07 4/27/2011 Outperform NS $9.00 -22.22% +47.53% -69.75 0 Comment
Squeege1981 48.24 4/18/2011 Outperform 5Y $8.64 -18.98% +52.57% -71.55 0 Comment
reachmygoals1 < 20 4/11/2011 Outperform 3M $8.94 -21.70% +49.80% -71.50 0 Comment
limeonaire 98.84 4/4/2011 Outperform 5Y $9.00 -22.22% +49.32% -71.54 0 Comment
ajhers2 26.21 3/25/2011 Outperform 5Y $8.46 -17.26% +51.12% -68.38 0 Comment
lombardy 30.27 3/22/2011 Outperform 5Y $7.62 -8.14% +53.59% -61.73 0 Comment
binyalazar < 20 3/10/2011 Outperform 5Y $8.99 -22.17% +52.58% -74.75 0 Comment
WorldOnFire 28.62 2/23/2011 Outperform 3W $8.70 -19.54% +51.23% -70.77 0 Comment
HackInvestor 21.62 2/22/2011 Outperform 5Y $9.12 -23.25% +49.67% -72.92 0 Comment
cheaply 24.25 2/10/2011 Outperform 1Y $11.16 -37.27% +51.40% -88.67 1 Comment
phineas333 30.48 2/10/2011 Outperform 5Y $11.04 -36.59% +51.40% -87.99 0 Comment
Cjbrat1 29.50 1/10/2011 Outperform 5Y $12.36 -43.37% +57.40% -100.77 0 Comment
atlasbooks 85.88 1/4/2011 Outperform 3M $12.96 -45.99% +56.48% -102.46 0 Comment
FinanceGuy58 53.43 12/20/2010 Outperform 5Y $13.14 -46.73% +59.85% -106.58 0 Comment
Okcfirefighter < 20 12/17/2010 Outperform 5Y $12.72 -44.97% +60.24% -105.21 0 Comment
smcnei2 27.26 12/13/2010 Outperform NS $13.80 -49.28% +59.33% -108.60 0 Comment
Results 1 - 99 of 191 : 1 2 Next »

Featured Broker Partners


Advertisement